KDAN/DAN METAR and TAF weather

Enter ICAO airport designator
Station Type Date Time Source
KDAN METAR 2019/10/18 10:53 UTC NOAA

KDAN 181053Z AUTO 29007KT 10SM CLR 06/03 A3001 RMK AO2 SLP157 T00610028


Station Type Date Time Source
KDAN Decoded METAR 2019/10/18 10:53 UTC NOAA

DANVILLE REGIONAL AIRPORT, VA, United States (KDAN) 36-34N 079-20W 175M
Oct 18, 2019 - 06:53 AM EDT / 2019.10.18 1053 UTC
Wind: from the WNW (290 degrees) at 8 MPH (7 KT):0
Visibility: 10 mile(s):0
Sky conditions: clear
Temperature: 43.0 F (6.1 C)
Dew Point: 37.0 F (2.8 C)
Relative Humidity: 79%
Pressure (altimeter): 30.01 in. Hg (1016 hPa)
ob: KDAN 181053Z AUTO 29007KT 10SM CLR 06/03 A3001 RMK AO2 SLP157 T00610028
cycle: 11

Station Type Date Time Source
KDAN TAF 2019/10/18 06:22 UTC NOAA

TAF KDAN 180520Z 1806/1906 34004KT P6SM SKC

Example: see airport list